createdAt,value
2022-10-22T11:16:28.809Z,101908.28
2022-10-22T11:19:22.932Z,101907.41
2022-10-22T11:23:00.294Z,101888.31
2022-10-22T11:25:46.697Z,101891.78
2022-10-22T11:30:46.556Z,101869.25
2022-10-22T11:33:19.922Z,101881.38
2022-10-22T11:35:48.081Z,101870.09
2022-10-22T11:38:18.816Z,101877.03
2022-10-22T11:40:52.439Z,101878.75
2022-10-22T11:43:54.595Z,101881.34
2022-10-22T11:46:21.307Z,101889.16
2022-10-22T11:49:19.132Z,101877.84
2022-10-22T11:51:47.431Z,101875.31
2022-10-22T11:54:36.942Z,101890.03
2022-10-22T11:57:15.622Z,101892.63
2022-10-22T11:59:59.565Z,101883.94
2022-10-22T12:02:29.518Z,101883.06
2022-10-22T12:05:18.679Z,101880.44
2022-10-22T12:08:00.434Z,101879.59
2022-10-22T12:10:48.875Z,101878.75
2022-10-22T12:13:30.757Z,101875.25
2022-10-22T12:16:04.075Z,101864.81
2022-10-22T12:18:41.679Z,101859.53
2022-10-22T12:21:17.826Z,101853.47
2022-10-22T12:23:46.805Z,101863.00
2022-10-22T12:26:28.073Z,101856.00
2022-10-22T12:28:59.090Z,101869.91
2022-10-22T12:31:26.224Z,101862.09
2022-10-22T12:33:57.714Z,101856.88
2022-10-22T12:36:30.041Z,101855.97
2022-10-22T12:39:00.894Z,101853.38
2022-10-22T12:41:33.292Z,101842.13
2022-10-22T12:44:01.737Z,101851.66
2022-10-22T12:46:31.600Z,101851.66
2022-10-22T12:49:04.482Z,101854.25
2022-10-22T12:54:04.001Z,101842.13
2022-10-22T12:56:34.179Z,101847.28
2022-10-22T12:59:06.045Z,101838.63
2022-10-22T13:01:38.355Z,101843.81
2022-10-22T13:04:12.879Z,101845.59
2022-10-22T13:06:45.338Z,101840.41
2022-10-22T13:09:15.145Z,101841.28
2022-10-22T13:11:51.349Z,101839.50
2022-10-22T13:14:31.646Z,101851.66
2022-10-22T13:17:11.423Z,101852.59
2022-10-22T13:19:42.658Z,101857.81
2022-10-22T13:22:27.960Z,101863.91
2022-10-22T15:22:38.951Z,101858.00
2022-10-22T15:25:09.412Z,101864.88
2022-10-22T15:27:36.667Z,101866.59
2022-10-22T15:30:04.322Z,101857.91
2022-10-22T15:32:36.846Z,101854.44
2022-10-22T15:35:05.902Z,101861.22
2022-10-22T15:42:05.758Z,101866.97
2022-10-22T15:44:33.093Z,101861.84
2022-10-22T15:47:00.620Z,101862.81
2022-10-22T15:49:28.347Z,101861.16
2022-10-22T15:51:55.275Z,101871.63
2022-10-22T15:54:25.438Z,101874.22
2022-10-22T15:56:52.449Z,101870.81
2022-10-22T15:59:20.122Z,101874.28
2022-10-22T16:01:47.097Z,101883.88
2022-10-22T16:04:13.944Z,101884.75
2022-10-22T16:06:52.854Z,101881.28
2022-10-22T16:09:23.227Z,101884.78
2022-10-22T16:11:51.205Z,101895.22
2022-10-22T16:14:20.740Z,101890.88
2022-10-22T16:16:50.151Z,101898.72
2022-10-22T16:19:19.040Z,101893.50
2022-10-22T16:21:46.261Z,101898.72
2022-10-22T16:24:13.364Z,101896.97
2022-10-22T16:26:40.058Z,101901.31
2022-10-22T16:29:08.560Z,101896.97
2022-10-22T16:31:35.452Z,101895.25
2022-10-22T16:34:02.948Z,101898.69
2022-10-22T16:36:29.627Z,101908.25
2022-10-22T16:38:59.387Z,101903.03
2022-10-22T16:41:33.845Z,101910.84
2022-10-22T16:44:03.437Z,101909.13
2022-10-22T16:46:31.289Z,101909.13
2022-10-22T16:48:58.224Z,101916.94
2022-10-22T16:51:27.222Z,101921.28
2022-10-22T16:53:55.929Z,101929.94
2022-10-22T16:56:23.355Z,101928.22
2022-10-22T16:58:52.497Z,101940.38
2022-10-22T17:01:21.711Z,101940.38
2022-10-22T17:03:48.650Z,101939.50
2022-10-22T17:06:15.704Z,101945.53
2022-10-22T17:08:42.901Z,101948.16
2022-10-22T17:11:12.715Z,101942.97
2022-10-22T17:13:42.034Z,101953.38
2022-10-22T17:16:11.310Z,101956.88
2022-10-22T17:18:39.849Z,101955.97
2022-10-22T17:21:07.994Z,101958.63
2022-10-22T17:23:34.863Z,101960.34
2022-10-22T17:26:06.520Z,101966.41
2022-10-22T17:28:34.291Z,101968.16
2022-10-22T17:31:09.437Z,101969.91
2022-10-22T17:33:36.532Z,101975.13
2022-10-22T17:36:09.211Z,101978.59
2022-10-22T17:38:36.068Z,101971.63
2022-10-22T17:41:04.399Z,101977.69
2022-10-22T17:43:33.818Z,101985.50
2022-10-22T17:46:08.538Z,101981.16
2022-10-22T17:48:35.378Z,101975.09
2022-10-22T17:51:09.318Z,101973.34
2022-10-22T17:53:38.300Z,101984.63
2022-10-22T17:56:10.135Z,101983.78
2022-10-22T17:58:37.410Z,101992.47
2022-10-22T18:01:04.868Z,101989.88
2022-10-22T18:03:33.242Z,101985.53
2022-10-22T18:06:07.793Z,101981.19
2022-10-22T18:08:34.652Z,101986.38
2022-10-22T18:11:07.362Z,101989.00
2022-10-22T18:13:34.753Z,101993.34
2022-10-22T18:16:01.559Z,101988.13
2022-10-22T18:18:28.934Z,101998.53
2022-10-22T18:20:55.623Z,101994.22
2022-10-22T18:23:22.443Z,102005.47
2022-10-22T18:25:49.430Z,101997.69
2022-10-22T18:28:18.629Z,102004.63
2022-10-22T18:30:47.773Z,102002.03
2022-10-22T18:33:16.677Z,102005.50
2022-10-22T18:35:43.766Z,102008.97
2022-10-22T18:38:11.008Z,102010.69
2022-10-22T18:40:45.769Z,102010.69
2022-10-22T18:43:12.661Z,102022.00
2022-10-22T18:45:46.955Z,102023.72
2022-10-22T18:48:16.038Z,102028.06
2022-10-22T18:50:43.191Z,102033.28
2022-10-22T18:53:13.091Z,102026.31
2022-10-22T18:55:40.342Z,102027.22
2022-10-22T18:58:07.251Z,102025.47
2022-10-22T19:00:37.008Z,102027.19
2022-10-22T19:03:03.814Z,102021.97
2022-10-22T19:05:31.288Z,102029.81
2022-10-22T19:07:58.248Z,102034.13
2022-10-22T19:10:24.930Z,102031.53
2022-10-22T19:12:51.673Z,102035.91
2022-10-22T19:15:18.508Z,102026.34
2022-10-22T19:17:45.400Z,102034.16
2022-10-22T19:20:13.370Z,102040.25
2022-10-22T19:22:40.165Z,102043.72
2022-10-22T19:25:09.749Z,102037.63
2022-10-22T19:27:39.963Z,102040.22
2022-10-22T19:30:07.568Z,102043.72
2022-10-22T19:32:34.946Z,102038.50
2022-10-22T19:35:01.900Z,102043.69
2022-10-22T19:37:28.622Z,102037.63
2022-10-22T19:39:55.257Z,102037.59
2022-10-22T19:42:22.013Z,102037.63
2022-10-22T19:44:48.889Z,102031.53
2022-10-22T19:47:16.170Z,102035.03
2022-10-22T19:49:42.922Z,102041.06
2022-10-22T19:52:09.813Z,102046.28
2022-10-22T19:54:40.857Z,102048.00
2022-10-22T19:57:08.755Z,102046.34
2022-10-22T19:59:35.836Z,102049.75
2022-10-22T20:02:02.531Z,102049.78
2022-10-22T20:04:29.396Z,102040.22
2022-10-22T20:06:56.589Z,102043.72
2022-10-22T20:09:23.664Z,102051.50
2022-10-22T20:11:50.397Z,102051.53
2022-10-22T20:14:17.033Z,102049.78
2022-10-22T20:16:43.899Z,102051.50
2022-10-22T20:19:16.065Z,102045.44
2022-10-22T20:21:43.859Z,102057.59
2022-10-22T20:24:11.683Z,102052.38
2022-10-22T20:26:38.368Z,102057.59
2022-10-22T20:29:04.990Z,102056.75
2022-10-22T20:31:33.096Z,102054.97
2022-10-22T20:34:01.454Z,102059.34
2022-10-22T20:36:32.081Z,102059.34
2022-10-22T20:39:02.995Z,102074.06
2022-10-22T20:41:29.967Z,102071.47
2022-10-22T20:43:56.765Z,102073.22
2022-10-22T20:46:32.112Z,102068.88
2022-10-22T20:49:09.003Z,102067.13
2022-10-22T20:51:37.433Z,102070.59
2022-10-22T20:54:05.832Z,102067.97
2022-10-22T20:56:32.981Z,102070.59
2022-10-22T20:59:08.017Z,102077.56
2022-10-22T21:01:54.591Z,102069.75
2022-10-22T21:04:21.923Z,102072.34
2022-10-22T21:06:50.274Z,102074.09
2022-10-22T21:09:17.128Z,102079.28
2022-10-22T21:11:43.925Z,102081.03
2022-10-22T21:14:12.006Z,102080.16
2022-10-22T21:16:46.609Z,102088.84
2022-10-22T21:19:13.212Z,102092.34
2022-10-22T21:21:39.834Z,102081.00
2022-10-22T21:24:06.855Z,102087.97
2022-10-22T21:26:38.422Z,102099.25
2022-10-22T21:29:05.230Z,102095.78
2022-10-22T21:31:32.025Z,102090.59
2022-10-22T21:33:58.757Z,102093.16
2022-10-22T21:36:25.595Z,102094.03
2022-10-22T21:38:53.250Z,102093.16
2022-10-22T21:41:22.174Z,102095.78
2022-10-22T21:43:51.952Z,102094.91
2022-10-22T21:46:23.737Z,102095.78
2022-10-22T21:48:56.369Z,102097.50
2022-10-22T21:51:24.238Z,102093.16
2022-10-22T21:56:21.984Z,102100.13
2022-10-22T21:58:48.644Z,102090.56
2022-10-22T22:01:16.203Z,102096.63
2022-10-22T22:03:45.449Z,102098.38
2022-10-22T22:06:13.304Z,102099.25
2022-10-22T22:08:40.473Z,102101.84
2022-10-22T22:11:10.044Z,102098.38
2022-10-22T22:13:37.593Z,102100.13
2022-10-22T22:16:07.323Z,102092.31
2022-10-22T22:18:35.350Z,102097.53
2022-10-22T22:21:06.253Z,102087.97
2022-10-22T22:23:33.595Z,102088.81
2022-10-22T22:26:01.352Z,102089.72
2022-10-22T22:28:29.260Z,102083.63
2022-10-22T22:30:56.445Z,102083.63
2022-10-22T22:33:23.313Z,102081.91
2022-10-22T22:35:50.266Z,102082.75
2022-10-22T22:38:17.117Z,102085.38
2022-10-22T22:40:44.085Z,102093.19
2022-10-22T22:43:11.623Z,102094.94
2022-10-22T22:45:40.819Z,102094.94
2022-10-22T22:48:08.152Z,102092.31
2022-10-22T22:50:36.504Z,102093.16
2022-10-22T22:53:03.109Z,102095.78
2022-10-22T22:55:32.032Z,102101.00
2022-10-22T22:57:59.008Z,102094.03
2022-10-22T23:00:25.774Z,102096.66
2022-10-22T23:02:56.031Z,102095.78
2022-10-22T23:05:22.893Z,102091.44
2022-10-22T23:07:49.526Z,102097.50
2022-10-22T23:10:16.226Z,102088.81
2022-10-22T23:12:46.527Z,102094.03
2022-10-22T23:15:13.169Z,102089.72
2022-10-22T23:17:39.804Z,102087.97
2022-10-22T23:20:07.671Z,102083.63
2022-10-22T23:22:36.234Z,102084.50
2022-10-22T23:25:02.869Z,102080.16
2022-10-22T23:27:29.582Z,102074.94
2022-10-22T23:29:56.192Z,102064.53
2022-10-22T23:32:22.818Z,102061.94
2022-10-22T23:34:49.769Z,102069.75
2022-10-22T23:37:16.497Z,102072.34
2022-10-22T23:39:43.114Z,102076.66
2022-10-22T23:42:09.802Z,102087.09
2022-10-22T23:44:36.396Z,102076.69
2022-10-22T23:47:03.015Z,102075.78
2022-10-22T23:49:29.658Z,102070.59
2022-10-22T23:51:56.448Z,102068.88
2022-10-22T23:54:23.172Z,102074.06
2022-10-22T23:56:49.945Z,102066.22
2022-10-22T23:59:16.669Z,102068.84
